createdAt,value
2017-10-30T00:00:41.750Z,5.88
2017-10-30T00:01:52.042Z,5.83
2017-10-30T00:03:02.019Z,5.92
2017-10-30T00:04:11.980Z,5.87
2017-10-30T00:05:22.270Z,5.84
2017-10-30T00:06:32.807Z,5.84
2017-10-30T00:07:42.776Z,5.83
2017-10-30T00:08:52.744Z,5.9
2017-10-30T00:10:03.040Z,5.92
2017-10-30T00:11:13.341Z,5.84
2017-10-30T00:12:23.872Z,5.81
2017-10-30T00:13:33.208Z,5.88
2017-10-30T00:14:43.488Z,5.83
2017-10-30T00:15:53.819Z,5.83
2017-10-30T00:17:04.134Z,5.81
2017-10-30T00:18:14.684Z,5.72
2017-10-30T00:19:24.648Z,5.79
2017-10-30T00:20:34.932Z,5.73
2017-10-30T00:21:44.887Z,5.65
2017-10-30T00:22:55.179Z,5.73
2017-10-30T00:24:05.730Z,5.65
2017-10-30T00:25:16.026Z,5.76
2017-10-30T00:26:25.988Z,5.69
2017-10-30T00:27:36.278Z,5.69
2017-10-30T00:28:46.571Z,5.65
2017-10-30T00:29:56.788Z,5.69
2017-10-30T00:31:07.070Z,5.7
2017-10-30T00:32:17.360Z,5.65
2017-10-30T00:33:27.647Z,5.64
2017-10-30T00:34:37.927Z,5.69
2017-10-30T00:35:48.145Z,5.67
2017-10-30T00:36:58.432Z,5.69
2017-10-30T00:38:08.731Z,5.69
2017-10-30T00:39:19.042Z,5.64
2017-10-30T00:40:28.668Z,5.69
2017-10-30T00:41:38.606Z,5.7
2017-10-30T00:42:48.919Z,5.69
2017-10-30T00:43:59.204Z,5.67
2017-10-30T00:45:09.499Z,5.69
2017-10-30T00:46:19.789Z,5.73
2017-10-30T00:47:30.334Z,5.77
2017-10-30T00:48:40.638Z,5.76
2017-10-30T00:49:50.932Z,5.8
2017-10-30T00:51:00.886Z,5.7
2017-10-30T00:52:11.172Z,5.74
2017-10-30T00:53:21.701Z,5.76
2017-10-30T00:54:31.994Z,5.72
2017-10-30T00:55:42.288Z,5.77
2017-10-30T00:56:52.574Z,5.77
2017-10-30T00:58:02.876Z,5.65
2017-10-30T00:59:13.094Z,5.65
2017-10-30T01:00:23.391Z,5.69
2017-10-30T01:01:33.030Z,5.76
2017-10-30T01:02:43.336Z,5.72
2017-10-30T01:03:53.639Z,5.73
2017-10-30T01:05:03.865Z,5.76
2017-10-30T01:06:13.826Z,5.81
2017-10-30T01:07:24.129Z,5.72
2017-10-30T01:08:34.432Z,5.65
2017-10-30T01:09:44.723Z,5.69
2017-10-30T01:10:55.259Z,5.62
2017-10-30T01:12:05.558Z,5.73
2017-10-30T01:13:15.529Z,5.73
2017-10-30T01:14:25.853Z,5.77
2017-10-30T01:15:36.140Z,5.61
2017-10-30T01:16:46.355Z,5.73
2017-10-30T01:17:56.642Z,5.74
2017-10-30T01:19:06.951Z,5.74
2017-10-30T01:20:17.260Z,5.72
2017-10-30T01:21:27.543Z,5.64
2017-10-30T01:22:38.084Z,5.79
2017-10-30T01:23:48.065Z,5.7
2017-10-30T01:24:58.352Z,5.59
2017-10-30T01:26:08.627Z,5.76
2017-10-30T01:27:18.598Z,5.69
2017-10-30T01:28:29.180Z,5.65
2017-10-30T01:29:39.138Z,5.69
2017-10-30T01:30:49.100Z,5.67
2017-10-30T01:31:59.385Z,5.72
2017-10-30T01:33:09.673Z,5.7
2017-10-30T01:34:19.886Z,5.67
2017-10-30T01:35:30.176Z,5.58
2017-10-30T01:36:40.143Z,5.56
2017-10-30T01:37:50.441Z,5.59
2017-10-30T01:39:00.726Z,5.58
2017-10-30T01:40:11.256Z,5.56
2017-10-30T01:41:21.557Z,5.56
2017-10-30T01:42:31.199Z,5.58
2017-10-30T01:43:41.491Z,5.54
2017-10-30T01:44:51.453Z,5.69
2017-10-30T01:46:01.986Z,5.67
2017-10-30T01:47:11.951Z,5.61
2017-10-30T01:48:22.246Z,5.59
2017-10-30T01:49:32.208Z,5.55
2017-10-30T01:50:42.531Z,5.58
2017-10-30T01:51:52.748Z,5.62
2017-10-30T01:53:03.039Z,5.52
2017-10-30T01:54:13.001Z,5.58
2017-10-30T01:55:22.995Z,5.59
2017-10-30T01:56:33.295Z,5.58
2017-10-30T01:57:43.514Z,5.56
2017-10-30T01:58:53.808Z,5.55
2017-10-30T02:00:04.089Z,5.54
2017-10-30T02:01:14.050Z,5.58
2017-10-30T02:02:24.346Z,5.61
2017-10-30T02:03:34.561Z,5.52
2017-10-30T02:04:44.520Z,5.44
2017-10-30T02:05:54.489Z,5.43
2017-10-30T02:07:04.786Z,5.44
2017-10-30T02:08:15.054Z,5.47
2017-10-30T02:09:25.612Z,5.47
2017-10-30T02:10:35.894Z,5.41
2017-10-30T02:11:46.184Z,5.47
2017-10-30T02:12:56.152Z,5.43
2017-10-30T02:14:06.120Z,5.47
2017-10-30T02:15:16.648Z,5.51
2017-10-30T02:16:26.295Z,5.44
2017-10-30T02:17:36.598Z,5.46
2017-10-30T02:18:46.903Z,5.38
2017-10-30T02:19:57.186Z,5.41
2017-10-30T02:21:07.414Z,5.44
2017-10-30T02:22:17.706Z,5.41
2017-10-30T02:23:28.005Z,5.44
2017-10-30T02:24:38.289Z,5.44
2017-10-30T02:25:48.572Z,5.43
2017-10-30T02:26:59.109Z,5.47
2017-10-30T02:28:09.398Z,5.54
2017-10-30T02:29:19.690Z,5.52
2017-10-30T02:30:29.984Z,5.49
2017-10-30T02:31:40.281Z,5.52
2017-10-30T02:32:50.833Z,5.52
2017-10-30T02:34:01.128Z,5.41
2017-10-30T02:35:11.416Z,5.43
2017-10-30T02:36:21.711Z,5.47
2017-10-30T02:37:31.680Z,5.44
2017-10-30T02:38:41.915Z,5.43
2017-10-30T02:39:52.222Z,5.4
2017-10-30T02:41:02.198Z,5.44
2017-10-30T02:42:12.162Z,5.46
2017-10-30T02:43:22.474Z,5.44
2017-10-30T02:44:33.008Z,5.44
2017-10-30T02:45:42.984Z,5.44
2017-10-30T02:46:53.276Z,5.38
2017-10-30T02:48:03.249Z,5.34
2017-10-30T02:49:13.219Z,5.38
2017-10-30T02:50:23.758Z,5.36
2017-10-30T02:51:33.751Z,5.36
2017-10-30T02:52:43.727Z,5.36
2017-10-30T02:53:54.045Z,5.34
2017-10-30T02:55:04.327Z,5.31
2017-10-30T02:56:14.874Z,5.28
2017-10-30T02:57:25.165Z,5.23
2017-10-30T02:58:35.451Z,5.33
2017-10-30T02:59:45.742Z,5.26
2017-10-30T03:00:56.042Z,5.26
2017-10-30T03:02:05.926Z,5.29
2017-10-30T03:03:15.881Z,5.29
2017-10-30T03:04:26.180Z,5.25
2017-10-30T03:05:36.485Z,5.22
2017-10-30T03:06:46.769Z,5.23
2017-10-30T03:07:57.303Z,5.23
2017-10-30T03:09:07.597Z,5.25
2017-10-30T03:10:17.929Z,5.19
2017-10-30T03:11:28.246Z,5.23
2017-10-30T03:12:38.524Z,5.2
2017-10-30T03:13:49.063Z,5.19
2017-10-30T03:14:59.366Z,5.19
2017-10-30T03:16:09.325Z,5.19
2017-10-30T03:17:19.611Z,5.22
2017-10-30T03:18:29.906Z,5.25
2017-10-30T03:19:40.519Z,5.22
2017-10-30T03:20:50.187Z,5.22
2017-10-30T03:22:00.151Z,5.16
2017-10-30T03:23:10.438Z,5.25
2017-10-30T03:24:20.083Z,5.19
2017-10-30T03:25:29.968Z,5.19
2017-10-30T03:26:40.281Z,5.26
2017-10-30T03:27:50.583Z,5.25
2017-10-30T03:29:00.865Z,5.19
2017-10-30T03:30:10.840Z,5.22
2017-10-30T03:31:21.379Z,5.2
2017-10-30T03:32:31.659Z,5.19
2017-10-30T03:33:41.636Z,5.2
2017-10-30T03:34:51.583Z,5.22
2017-10-30T03:36:01.224Z,5.22
2017-10-30T03:37:11.760Z,5.28
2017-10-30T03:38:22.046Z,5.36
2017-10-30T03:39:31.684Z,5.31
2017-10-30T03:40:41.979Z,5.34
2017-10-30T03:41:52.284Z,5.36
2017-10-30T03:43:02.826Z,5.34
2017-10-30T03:44:12.801Z,5.31
2017-10-30T03:45:22.757Z,5.4
2017-10-30T03:46:32.727Z,5.43
2017-10-30T03:47:43.031Z,5.51
2017-10-30T03:48:53.230Z,5.51
2017-10-30T03:50:03.195Z,5.46
2017-10-30T03:51:13.505Z,5.43
2017-10-30T03:52:23.787Z,5.51
2017-10-30T03:53:33.748Z,5.41
2017-10-30T03:54:44.281Z,5.47
2017-10-30T03:55:54.271Z,5.52
2017-10-30T03:57:04.240Z,5.56
2017-10-30T03:58:14.537Z,5.47
2017-10-30T03:59:24.499Z,5.41
2017-10-30T04:00:34.714Z,5.51
2017-10-30T04:01:45.002Z,5.44
2017-10-30T04:02:54.637Z,5.51
2017-10-30T04:04:04.935Z,5.4
2017-10-30T04:05:15.229Z,5.41
2017-10-30T04:06:25.436Z,5.46
2017-10-30T04:07:35.746Z,5.51
2017-10-30T04:08:45.714Z,5.46
2017-10-30T04:09:56.031Z,5.47
2017-10-30T04:11:05.998Z,5.49
2017-10-30T04:12:16.215Z,5.46
2017-10-30T04:13:26.508Z,5.44
2017-10-30T04:14:36.471Z,5.51
2017-10-30T04:15:46.442Z,5.49
2017-10-30T04:16:56.421Z,5.44
2017-10-30T04:18:06.632Z,5.46
2017-10-30T04:19:16.922Z,5.43
2017-10-30T04:20:27.220Z,5.51
2017-10-30T04:21:37.507Z,5.46
2017-10-30T04:22:47.799Z,5.4
2017-10-30T04:23:58.018Z,5.46
2017-10-30T04:25:08.769Z,5.47
2017-10-30T04:26:19.066Z,5.56
2017-10-30T04:27:29.356Z,5.55
2017-10-30T04:28:38.990Z,5.58
2017-10-30T04:29:49.526Z,5.58
2017-10-30T04:30:59.816Z,5.58
2017-10-30T04:32:09.774Z,5.69
2017-10-30T04:33:20.060Z,5.67
2017-10-30T04:34:30.348Z,5.73
2017-10-30T04:35:40.898Z,5.67
2017-10-30T04:36:51.200Z,5.65
2017-10-30T04:38:01.163Z,5.79
2017-10-30T04:39:11.463Z,5.73
2017-10-30T04:40:21.751Z,5.69
2017-10-30T04:41:32.316Z,5.79
2017-10-30T04:42:42.614Z,5.76
2017-10-30T04:43:52.571Z,5.8
2017-10-30T04:45:02.557Z,5.76
2017-10-30T04:46:12.856Z,5.74
2017-10-30T04:47:23.401Z,5.74
2017-10-30T04:48:33.694Z,5.73
2017-10-30T04:49:43.977Z,5.8
2017-10-30T04:50:54.282Z,5.72
2017-10-30T04:52:04.230Z,5.72
2017-10-30T04:53:14.771Z,5.67
2017-10-30T04:54:24.402Z,5.69
2017-10-30T04:55:34.697Z,5.69
2017-10-30T04:56:45.900Z,5.65
2017-10-30T04:57:55.867Z,5.69
2017-10-30T04:59:06.398Z,5.7
2017-10-30T05:00:16.693Z,5.72
2017-10-30T05:01:26.660Z,5.72
2017-10-30T05:02:36.952Z,5.58
2017-10-30T05:03:46.919Z,5.58
2017-10-30T05:04:57.457Z,5.58
2017-10-30T05:06:07.752Z,5.54
2017-10-30T05:07:17.727Z,5.58
2017-10-30T05:08:27.691Z,5.55
2017-10-30T05:09:37.975Z,5.58
2017-10-30T05:10:48.535Z,5.58
2017-10-30T05:11:58.834Z,5.47
2017-10-30T05:13:09.141Z,5.44
2017-10-30T05:14:19.444Z,5.43
2017-10-30T05:15:29.742Z,5.44
2017-10-30T05:16:40.291Z,5.49
2017-10-30T05:17:50.580Z,5.43
2017-10-30T05:19:00.869Z,5.43
2017-10-30T05:20:11.163Z,5.44
2017-10-30T05:21:21.127Z,5.46
2017-10-30T05:22:31.396Z,5.51
2017-10-30T05:23:41.683Z,5.46
2017-10-30T05:24:51.641Z,5.37
2017-10-30T05:26:01.929Z,5.36
2017-10-30T05:27:12.224Z,5.4
2017-10-30T05:28:22.124Z,5.29
2017-10-30T05:29:32.424Z,5.36
2017-10-30T05:30:42.718Z,5.44
2017-10-30T05:31:52.683Z,5.34
2017-10-30T05:33:02.984Z,5.34
2017-10-30T05:34:13.510Z,5.28
2017-10-30T05:35:23.478Z,5.36
2017-10-30T05:36:33.757Z,5.28
2017-10-30T05:37:44.047Z,5.31
2017-10-30T05:38:54.342Z,5.34
2017-10-30T05:40:04.892Z,5.23
2017-10-30T05:41:15.193Z,5.29
2017-10-30T05:42:25.500Z,5.22
2017-10-30T05:43:35.787Z,5.34
2017-10-30T05:44:46.092Z,5.19
2017-10-30T05:45:56.299Z,5.25
2017-10-30T05:47:06.609Z,5.2
2017-10-30T05:48:16.569Z,5.22
2017-10-30T05:49:26.259Z,5.23
2017-10-30T05:50:35.899Z,5.18
2017-10-30T05:51:46.447Z,5.19
2017-10-30T05:52:56.747Z,5.2
2017-10-30T05:54:07.058Z,5.12
2017-10-30T05:55:17.047Z,5.18
2017-10-30T05:56:27.023Z,5.23
2017-10-30T05:57:37.252Z,5.15
2017-10-30T05:58:47.213Z,5.15
2017-10-30T05:59:57.525Z,5.15
2017-10-30T06:01:07.824Z,5.15
2017-10-30T06:02:18.113Z,5.16
2017-10-30T06:03:28.330Z,5.19
2017-10-30T06:04:38.622Z,5.15
2017-10-30T06:05:48.251Z,5.18
2017-10-30T06:06:58.551Z,5.15
2017-10-30T06:08:08.859Z,5.15
2017-10-30T06:09:19.443Z,5.12
2017-10-30T06:10:29.723Z,5.15
2017-10-30T06:11:39.039Z,5.15
2017-10-30T06:12:49.334Z,5.04
2017-10-30T06:13:59.622Z,5.15
2017-10-30T06:15:09.840Z,5.1
2017-10-30T06:16:20.137Z,5.16
2017-10-30T06:17:30.109Z,5.13
2017-10-30T06:18:40.074Z,5.16
2017-10-30T06:19:50.374Z,5.19
2017-10-30T06:21:00.623Z,5.15
2017-10-30T06:22:10.915Z,5.13
2017-10-30T06:23:21.217Z,5.15
2017-10-30T06:24:31.498Z,5.13
2017-10-30T06:25:41.464Z,5.15
2017-10-30T06:26:51.679Z,5.12
2017-10-30T06:28:01.964Z,5.02
2017-10-30T06:29:12.258Z,5
2017-10-30T06:30:22.575Z,5.08
2017-10-30T06:31:32.558Z,5.12
2017-10-30T06:32:43.092Z,5.05
2017-10-30T06:33:53.402Z,5.12
2017-10-30T06:35:03.691Z,4.98
2017-10-30T06:36:13.671Z,5.1
2017-10-30T06:37:23.967Z,4.98
2017-10-30T06:38:34.518Z,5.12
2017-10-30T06:39:44.492Z,5.05
2017-10-30T06:40:54.796Z,5.02
2017-10-30T06:42:05.094Z,5.02
2017-10-30T06:43:15.057Z,5.08
2017-10-30T06:44:25.603Z,5.13
2017-10-30T06:45:35.560Z,5.15
2017-10-30T06:46:45.515Z,5.15
2017-10-30T06:47:55.797Z,5.19
2017-10-30T06:49:06.100Z,5.13
2017-10-30T06:50:16.320Z,5.08
2017-10-30T06:51:26.632Z,5.19
2017-10-30T06:52:36.928Z,5.08
2017-10-30T06:53:47.247Z,5.02
2017-10-30T06:54:57.534Z,5.18
2017-10-30T06:56:08.107Z,5.04
2017-10-30T06:57:18.410Z,5.2
2017-10-30T06:58:28.719Z,5.22
2017-10-30T06:59:39.015Z,5.19
2017-10-30T07:00:49.305Z,5.18
2017-10-30T07:01:59.552Z,5.12
2017-10-30T07:03:09.870Z,5.25
2017-10-30T07:04:20.207Z,5.28
2017-10-30T07:05:30.522Z,5.34
2017-10-30T07:06:40.814Z,5.26
2017-10-30T07:07:51.029Z,5.26
2017-10-30T07:09:01.325Z,5.31
2017-10-30T07:10:11.279Z,5.31
2017-10-30T07:11:21.608Z,5.41
2017-10-30T07:12:31.895Z,5.41
2017-10-30T07:13:42.437Z,5.44
2017-10-30T07:14:52.740Z,5.4
2017-10-30T07:16:03.052Z,5.47
2017-10-30T07:17:13.343Z,5.46
2017-10-30T07:18:23.304Z,5.52
2017-10-30T07:19:33.534Z,5.54
2017-10-30T07:20:43.839Z,5.56
2017-10-30T07:21:54.366Z,5.59
2017-10-30T07:23:04.677Z,5.65
2017-10-30T07:24:14.973Z,5.59
2017-10-30T07:25:25.508Z,5.59
2017-10-30T07:26:35.803Z,5.67
2017-10-30T07:27:45.778Z,5.72
2017-10-30T07:28:56.078Z,5.56
2017-10-30T07:30:06.045Z,5.7
2017-10-30T07:31:15.610Z,5.73
2017-10-30T07:32:25.922Z,5.69
2017-10-30T07:33:35.571Z,5.77
2017-10-30T07:34:45.554Z,5.77
2017-10-30T07:35:55.523Z,5.73
2017-10-30T07:37:06.063Z,5.7
2017-10-30T07:38:16.036Z,5.8
2017-10-30T07:39:25.993Z,5.87
2017-10-30T07:40:35.970Z,5.8
2017-10-30T07:41:45.929Z,5.88
2017-10-30T07:42:56.473Z,5.97
2017-10-30T07:44:06.462Z,6.01
2017-10-30T07:45:16.771Z,6.13
2017-10-30T07:46:26.405Z,6.13
2017-10-30T07:47:36.700Z,6.29
2017-10-30T07:48:46.913Z,6.38
2017-10-30T07:49:57.209Z,6.35
2017-10-30T07:51:07.500Z,6.53
2017-10-30T07:52:17.475Z,6.64
2017-10-30T07:53:27.771Z,6.7
2017-10-30T07:54:38.000Z,6.8
2017-10-30T07:55:48.306Z,6.87
2017-10-30T07:56:58.296Z,6.77
2017-10-30T07:58:08.618Z,6.85
2017-10-30T07:59:18.582Z,6.9
2017-10-30T08:00:29.174Z,6.9
2017-10-30T08:01:39.468Z,6.93
2017-10-30T08:02:49.772Z,6.97
2017-10-30T08:04:00.083Z,7.04
2017-10-30T08:05:10.390Z,7.03
2017-10-30T08:06:20.287Z,7.14
2017-10-30T08:07:30.576Z,7.21
2017-10-30T08:08:40.871Z,7.22
2017-10-30T08:09:50.850Z,7.18
2017-10-30T08:11:01.160Z,7.37
2017-10-30T08:12:11.729Z,7.31
2017-10-30T08:13:22.032Z,7.36
2017-10-30T08:14:32.014Z,7.39
2017-10-30T08:15:42.307Z,7.48
2017-10-30T08:16:52.820Z,7.48
2017-10-30T08:18:03.039Z,7.53
2017-10-30T08:19:13.340Z,7.62
2017-10-30T08:20:23.666Z,7.81
2017-10-30T08:21:33.956Z,7.75
2017-10-30T08:22:44.260Z,7.81
2017-10-30T08:23:54.860Z,7.75
2017-10-30T08:25:04.830Z,7.72
2017-10-30T08:26:15.158Z,7.83
2017-10-30T08:27:25.134Z,7.83
2017-10-30T08:28:34.778Z,7.7
2017-10-30T08:29:45.331Z,7.77
2017-10-30T08:30:55.295Z,7.78
2017-10-30T08:32:05.601Z,7.81
2017-10-30T08:33:15.267Z,7.77
2017-10-30T08:34:25.567Z,7.9
2017-10-30T08:35:36.098Z,8.08
2017-10-30T08:36:46.423Z,8.11
2017-10-30T08:37:56.390Z,8.13
2017-10-30T08:39:06.693Z,8.2
2017-10-30T08:40:17.008Z,8.16
2017-10-30T08:41:27.559Z,8.31
2017-10-30T08:42:37.565Z,8.35
2017-10-30T08:43:47.536Z,8.46
2017-10-30T08:44:57.836Z,8.61
2017-10-30T08:46:08.143Z,8.5
2017-10-30T08:47:18.418Z,8.46
2017-10-30T08:48:28.710Z,8.49
2017-10-30T08:49:39.033Z,8.36
2017-10-30T08:50:49.347Z,8.39
2017-10-30T08:51:59.665Z,8.49
2017-10-30T08:53:10.209Z,8.66
2017-10-30T08:54:20.540Z,8.63
2017-10-30T08:55:30.851Z,8.66
2017-10-30T08:56:41.183Z,8.52
2017-10-30T08:57:51.489Z,8.61
2017-10-30T08:59:01.710Z,8.61
2017-10-30T09:00:12.040Z,8.61
2017-10-30T09:01:22.337Z,8.56
2017-10-30T09:02:32.307Z,8.66
2017-10-30T09:03:42.616Z,8.71
2017-10-30T09:04:52.828Z,8.69
2017-10-30T09:06:03.148Z,8.81
2017-10-30T09:07:13.147Z,8.93
2017-10-30T09:08:23.457Z,8.75
2017-10-30T09:09:33.760Z,8.87
2017-10-30T09:10:44.308Z,8.84
2017-10-30T09:11:54.281Z,8.72
2017-10-30T09:13:04.570Z,8.78
2017-10-30T09:14:14.547Z,8.96
2017-10-30T09:15:24.856Z,9
2017-10-30T09:16:35.094Z,9.03
2017-10-30T09:17:45.065Z,9.16
2017-10-30T09:18:54.724Z,9.19
2017-10-30T09:20:05.031Z,9.26
2017-10-30T09:21:15.014Z,9.26
2017-10-30T09:22:25.585Z,9.24
2017-10-30T09:23:35.895Z,9.24
2017-10-30T09:24:45.950Z,9.24
2017-10-30T09:25:56.260Z,9.22
2017-10-30T09:27:06.561Z,9.31
2017-10-30T09:28:16.448Z,9.11
2017-10-30T09:29:26.764Z,9.02
2017-10-30T09:30:36.731Z,8.82
2017-10-30T09:31:47.053Z,8.92
2017-10-30T09:32:57.056Z,8.86
2017-10-30T09:34:07.653Z,9.05
2017-10-30T09:35:18.006Z,9.19
2017-10-30T09:36:27.979Z,9.3
2017-10-30T09:37:38.315Z,9.4
2017-10-30T09:38:48.621Z,9.4
2017-10-30T09:39:58.849Z,9.44
2017-10-30T09:41:08.818Z,9.36
2017-10-30T09:42:19.126Z,9.26
2017-10-30T09:43:29.461Z,9.27
2017-10-30T09:44:39.771Z,9.36
2017-10-30T09:45:50.332Z,9.45
2017-10-30T09:47:00.634Z,9.47
2017-10-30T09:48:10.942Z,9.45
2017-10-30T09:49:20.924Z,9.54
2017-10-30T09:50:31.232Z,9.58
2017-10-30T09:51:41.149Z,9.44
2017-10-30T09:52:51.492Z,9.21
2017-10-30T09:54:01.491Z,9.26
2017-10-30T09:55:11.459Z,9.24
2017-10-30T09:56:21.426Z,9.4
2017-10-30T09:57:31.648Z,9.42
2017-10-30T09:58:41.943Z,9.56
2017-10-30T09:59:52.247Z,9.7
2017-10-30T10:01:02.588Z,9.81
2017-10-30T10:02:12.913Z,9.72
2017-10-30T10:03:23.143Z,9.66
2017-10-30T10:04:33.436Z,9.84
2017-10-30T10:05:43.740Z,9.8
2017-10-30T10:06:54.046Z,9.97
2017-10-30T10:08:04.349Z,10.06
2017-10-30T10:09:14.578Z,10.18
2017-10-30T10:10:24.878Z,10.07
2017-10-30T10:11:34.855Z,10.1
2017-10-30T10:12:45.143Z,10.23
2017-10-30T10:13:54.788Z,10.38
2017-10-30T10:15:05.014Z,10.36
2017-10-30T10:16:15.316Z,10.23
2017-10-30T10:17:25.645Z,10.46
2017-10-30T10:18:35.951Z,10.53
2017-10-30T10:19:45.917Z,10.68
2017-10-30T10:20:56.461Z,10.42
2017-10-30T10:22:06.763Z,10.62
2017-10-30T10:23:16.761Z,10.53
2017-10-30T10:24:27.066Z,10.53
2017-10-30T10:25:37.376Z,10.43
2017-10-30T10:26:47.976Z,10.36
2017-10-30T10:27:58.293Z,10.21
2017-10-30T10:29:08.272Z,10.28
2017-10-30T10:30:18.241Z,10.3
2017-10-30T10:31:28.544Z,10.31
2017-10-30T10:32:39.089Z,10.36
2017-10-30T10:33:49.389Z,10.21
2017-10-30T10:34:59.701Z,10.39
2017-10-30T10:36:10.012Z,10.42
2017-10-30T10:37:20.343Z,10.39
2017-10-30T10:38:30.906Z,10.23
2017-10-30T10:39:41.213Z,10.23
2017-10-30T10:40:51.542Z,10.42
2017-10-30T10:42:01.881Z,10.62
2017-10-30T10:43:11.876Z,10.77
2017-10-30T10:44:22.436Z,10.71
2017-10-30T10:45:32.750Z,10.67
2017-10-30T10:46:42.411Z,10.8
2017-10-30T10:47:52.416Z,10.39
2017-10-30T10:49:02.716Z,10.53
2017-10-30T10:50:13.294Z,10.64
2017-10-30T10:51:23.586Z,10.75
2017-10-30T10:52:33.900Z,10.9
2017-10-30T10:53:44.210Z,10.89
2017-10-30T10:54:54.525Z,10.86
2017-10-30T10:56:05.078Z,10.89
2017-10-30T10:57:15.382Z,10.64
2017-10-30T10:58:25.701Z,10.55
2017-10-30T10:59:35.691Z,10.57
2017-10-30T11:00:46.004Z,10.9
2017-10-30T11:01:56.540Z,10.83
2017-10-30T11:03:06.525Z,10.95
2017-10-30T11:04:15.837Z,11.2
2017-10-30T11:05:26.145Z,11.35
2017-10-30T11:06:36.464Z,11.45
2017-10-30T11:07:47.024Z,11.67
2017-10-30T11:08:56.682Z,11.41
2017-10-30T11:10:06.668Z,11
2017-10-30T11:11:16.976Z,11.08
2017-10-30T11:12:26.951Z,11.05
2017-10-30T11:13:37.508Z,11.2
2017-10-30T11:14:47.152Z,10.92
2017-10-30T11:15:57.466Z,10.87
2017-10-30T11:17:07.779Z,11.04
2017-10-30T11:18:18.102Z,11.02
2017-10-30T11:19:28.327Z,11.12
2017-10-30T11:20:38.634Z,10.95
2017-10-30T11:21:48.617Z,11
2017-10-30T11:22:58.922Z,11.02
2017-10-30T11:24:08.571Z,11.22
2017-10-30T11:25:19.121Z,11.38
2017-10-30T11:26:29.430Z,11.78
2017-10-30T11:27:39.401Z,11.49
2017-10-30T11:28:49.715Z,11.34
2017-10-30T11:29:59.681Z,11.31
2017-10-30T11:31:09.961Z,11.22
2017-10-30T11:32:20.276Z,11.34
2017-10-30T11:33:30.568Z,11.34
2017-10-30T11:34:40.880Z,11.05
2017-10-30T11:35:51.177Z,11.33
2017-10-30T11:37:01.417Z,11.43
2017-10-30T11:38:11.728Z,11.3
2017-10-30T11:39:22.047Z,10.95
2017-10-30T11:40:32.351Z,10.84
2017-10-30T11:41:42.658Z,10.87
2017-10-30T11:42:52.899Z,10.97
2017-10-30T11:44:03.219Z,10.9
2017-10-30T11:45:13.520Z,11.05
2017-10-30T11:46:23.834Z,11.05
2017-10-30T11:47:33.812Z,11.05
2017-10-30T11:48:44.355Z,11.13
2017-10-30T11:49:54.672Z,11.2
2017-10-30T11:51:04.989Z,11.2
2017-10-30T11:52:15.000Z,11.16
2017-10-30T11:53:24.982Z,11.23
2017-10-30T11:54:35.231Z,11.25
2017-10-30T11:55:45.934Z,11.2
2017-10-30T11:56:56.243Z,11.19
2017-10-30T11:58:06.586Z,11.19
2017-10-30T11:59:16.890Z,11.27
2017-10-30T12:00:27.460Z,11.55
2017-10-30T12:01:37.749Z,11.44
2017-10-30T12:02:48.091Z,11.41
2017-10-30T12:03:58.404Z,11.62
2017-10-30T12:05:08.387Z,11.67
2017-10-30T12:06:18.950Z,11.86
2017-10-30T12:07:28.937Z,11.6
2017-10-30T12:08:39.244Z,11.37
2017-10-30T12:09:49.546Z,11.27
2017-10-30T12:10:59.857Z,11.13
2017-10-30T12:12:10.418Z,11
2017-10-30T12:13:20.721Z,11.16
2017-10-30T12:14:30.696Z,11.26
2017-10-30T12:15:40.684Z,11.01
2017-10-30T12:16:50.988Z,10.79
2017-10-30T12:18:01.596Z,10.42
2017-10-30T12:19:11.922Z,10.55
2017-10-30T12:20:22.222Z,10.62
2017-10-30T12:21:32.529Z,10.69
2017-10-30T12:22:42.832Z,10.89
2017-10-30T12:23:53.385Z,11.05
2017-10-30T12:25:03.714Z,11.02
2017-10-30T12:26:14.025Z,10.61
2017-10-30T12:27:24.328Z,10.65
2017-10-30T12:28:34.644Z,10.61
2017-10-30T12:29:45.246Z,10.36
2017-10-30T12:30:54.897Z,10.21
2017-10-30T12:32:05.189Z,10.07
2017-10-30T12:33:15.168Z,10.12
2017-10-30T12:34:25.466Z,10.05
2017-10-30T12:35:35.739Z,10
2017-10-30T12:36:46.074Z,9.84
2017-10-30T12:37:56.377Z,9.97
2017-10-30T12:39:06.682Z,10.12
2017-10-30T12:40:16.996Z,10.02
2017-10-30T12:41:27.273Z,10.17
2017-10-30T12:42:37.740Z,10.25
2017-10-30T12:43:48.049Z,10.03
2017-10-30T12:44:58.024Z,9.55
2017-10-30T12:46:08.324Z,9.24
2017-10-30T12:47:18.936Z,9.13
2017-10-30T12:48:28.571Z,8.93
2017-10-30T12:49:38.881Z,8.71
2017-10-30T12:50:49.193Z,8.66
2017-10-30T12:51:59.477Z,8.66
2017-10-30T12:53:09.706Z,8.69
2017-10-30T12:54:19.677Z,8.64
2017-10-30T12:55:29.958Z,8.68
2017-10-30T12:56:40.286Z,8.66
2017-10-30T12:57:50.247Z,8.61
2017-10-30T12:59:00.522Z,8.64
2017-10-30T13:00:10.820Z,8.61
2017-10-30T13:01:21.120Z,8.57
2017-10-30T13:02:31.433Z,8.52
2017-10-30T13:03:41.732Z,8.63
2017-10-30T13:04:52.011Z,8.61
2017-10-30T13:06:01.647Z,8.68
2017-10-30T13:07:11.978Z,8.82
2017-10-30T13:08:22.278Z,8.93
2017-10-30T13:09:31.927Z,9.19
2017-10-30T13:10:42.466Z,9.26
2017-10-30T13:11:52.761Z,9.26
2017-10-30T13:13:03.073Z,9.4
2017-10-30T13:14:13.364Z,9.18
2017-10-30T13:15:23.674Z,9.22
2017-10-30T13:16:33.937Z,9.15
2017-10-30T13:17:43.915Z,9.02
2017-10-30T13:18:53.891Z,8.95
2017-10-30T13:20:04.191Z,8.99
2017-10-30T13:21:14.181Z,9.18
2017-10-30T13:22:24.405Z,9.29
2017-10-30T13:23:34.719Z,9.26
2017-10-30T13:24:45.012Z,9.13
2017-10-30T13:25:54.990Z,9.18
2017-10-30T13:27:04.959Z,9.18
2017-10-30T13:28:15.236Z,9.26
2017-10-30T13:29:25.220Z,9.37
2017-10-30T13:30:35.203Z,9.36
2017-10-30T13:31:45.500Z,9.54
2017-10-30T13:32:55.491Z,9.47
2017-10-30T13:34:06.086Z,9.62
2017-10-30T13:35:16.383Z,9.4
2017-10-30T13:36:26.369Z,9.24
2017-10-30T13:37:36.671Z,9.24
2017-10-30T13:38:46.334Z,9.13
2017-10-30T13:39:56.942Z,9.09
2017-10-30T13:41:07.248Z,9.24
2017-10-30T13:42:17.220Z,9.31
2017-10-30T13:43:27.536Z,9.34
2017-10-30T13:44:37.833Z,9.26
2017-10-30T13:45:48.383Z,9.26
2017-10-30T13:46:58.682Z,9.26
2017-10-30T13:48:08.977Z,9.26
2017-10-30T13:49:19.288Z,9.42
2017-10-30T13:50:29.595Z,9.26
2017-10-30T13:51:39.820Z,9.24
2017-10-30T13:52:50.117Z,9.26
2017-10-30T13:54:00.423Z,9.27
2017-10-30T13:55:10.401Z,9.39
2017-10-30T13:56:20.709Z,9.47
2017-10-30T13:57:31.308Z,9.55
2017-10-30T13:58:41.276Z,9.56
2017-10-30T13:59:51.575Z,9.52
2017-10-30T14:01:01.871Z,9.64
2017-10-30T14:02:12.182Z,9.76
2017-10-30T14:03:22.080Z,9.72
2017-10-30T14:04:32.380Z,9.72
2017-10-30T14:05:42.353Z,9.82
2017-10-30T14:06:52.662Z,9.99
2017-10-30T14:08:03.010Z,10.06
2017-10-30T14:09:13.558Z,10.18
2017-10-30T14:10:23.534Z,10.33
2017-10-30T14:11:33.845Z,10.38
2017-10-30T14:12:44.148Z,10.49
2017-10-30T14:13:54.447Z,10.36
2017-10-30T14:15:04.679Z,10.45
2017-10-30T14:16:14.981Z,10.49
2017-10-30T14:17:25.274Z,10.38
2017-10-30T14:18:35.576Z,10.38
2017-10-30T14:19:44.916Z,10.21
2017-10-30T14:20:55.135Z,10.23
2017-10-30T14:22:05.111Z,10.06
2017-10-30T14:23:15.087Z,10.05
2017-10-30T14:24:25.388Z,10.13
2017-10-30T14:25:35.677Z,10.05
2017-10-30T14:26:46.228Z,10.07
2017-10-30T14:27:56.213Z,10.09
2017-10-30T14:29:05.853Z,9.99
2017-10-30T14:30:16.704Z,10.13
2017-10-30T14:31:27.008Z,10.09
2017-10-30T14:32:37.576Z,10.07
2017-10-30T14:33:47.874Z,10.1
2017-10-30T14:34:58.172Z,10.05
2017-10-30T14:36:08.476Z,9.99
2017-10-30T14:37:18.776Z,9.9
2017-10-30T14:38:28.987Z,9.81
2017-10-30T14:39:39.299Z,9.95
2017-10-30T14:40:49.285Z,9.97
2017-10-30T14:41:59.262Z,10
2017-10-30T14:43:09.552Z,10.02
2017-10-30T14:44:20.107Z,10.02
2017-10-30T14:45:30.389Z,9.94
2017-10-30T14:46:40.686Z,9.84
2017-10-30T14:47:50.332Z,9.81
2017-10-30T14:49:00.636Z,9.63
2017-10-30T14:50:11.234Z,9.66
2017-10-30T14:51:21.646Z,9.55
2017-10-30T14:52:31.639Z,9.37
2017-10-30T14:53:41.612Z,9.27
2017-10-30T14:54:51.578Z,9.29
2017-10-30T14:56:02.122Z,9.24
2017-10-30T14:57:12.430Z,9.26
2017-10-30T14:58:22.741Z,9.22
2017-10-30T14:59:32.700Z,9.27
2017-10-30T15:00:42.666Z,9.15
2017-10-30T15:01:52.596Z,9.15
2017-10-30T15:03:02.885Z,9.02
2017-10-30T15:04:12.851Z,9.12
2017-10-30T15:05:23.272Z,8.99
2017-10-30T15:06:33.582Z,8.96
2017-10-30T15:07:44.162Z,8.95
2017-10-30T15:08:54.139Z,9.03
2017-10-30T15:10:04.439Z,8.93
2017-10-30T15:11:14.732Z,8.84
2017-10-30T15:12:24.697Z,8.81
2017-10-30T15:13:35.249Z,8.75
2017-10-30T15:14:45.554Z,8.72
2017-10-30T15:15:55.889Z,8.72
2017-10-30T15:17:06.189Z,8.69
2017-10-30T15:18:16.532Z,8.61
2017-10-30T15:19:26.758Z,8.63
2017-10-30T15:20:37.070Z,8.59
2017-10-30T15:21:47.363Z,8.6
2017-10-30T15:22:57.351Z,8.46
2017-10-30T15:24:07.651Z,8.46
2017-10-30T15:25:17.556Z,8.41
2017-10-30T15:26:27.557Z,8.41
2017-10-30T15:27:37.893Z,8.39
2017-10-30T15:28:48.199Z,8.35
2017-10-30T15:29:58.481Z,8.36
2017-10-30T15:31:09.063Z,8.35